Time;durP1;ratioP1;P1;durP2;ratioP2;P2;SDS_P1;SDS_P2;PMS_P1;PMS_P2;Temp;Humidity;BMP_temperature;BMP_pressure;BME280_temperature;BME280_humidity;BME280_pressure;Samples;Min_cycle;Max_cycle;Signal;HPM_P1;HPM_P2
2023/03/13 00:01:09;;;;;;;6.32;3.22;;;9.90;99.90;;;;;;5072353;28;20293;-79
2023/03/13 00:03:36;;;;;;;1.50;1.08;;;9.90;99.90;;;;;;5080428;28;20221;-79
2023/03/13 00:06:05;;;;;;;17.02;2.28;;;9.90;99.90;;;;;;5080395;28;20241;-78
2023/03/13 00:08:32;;;;;;;0.50;0.40;;;9.90;99.90;;;;;;5071174;28;20190;-80
2023/03/13 00:11:03;;;;;;;0.50;0.50;;;9.90;99.90;;;;;;5078437;28;20212;-79
2023/03/13 00:13:30;;;;;;;6.72;4.32;;;9.90;99.90;;;;;;5075780;28;20240;-79
2023/03/13 00:16:01;;;;;;;0.50;0.50;;;9.90;99.90;;;;;;5074341;28;20210;-79
2023/03/13 00:18:27;;;;;;;4.00;2.00;;;9.80;99.90;;;;;;5070599;28;20360;-78
2023/03/13 00:20:58;;;;;;;4.72;1.30;;;9.80;99.90;;;;;;5078224;28;20281;-79
2023/03/13 00:23:27;;;;;;;7.72;1.95;;;9.80;99.90;;;;;;5071433;28;20182;-79
2023/03/13 00:25:57;;;;;;;1.35;0.63;;;9.70;99.90;;;;;;5063885;28;20225;-79
2023/03/13 00:28:24;;;;;;;0.65;0.65;;;9.70;99.90;;;;;;5061625;28;20190;-79
2023/03/13 00:30:51;;;;;;;0.50;0.40;;;9.60;99.90;;;;;;5079084;28;20262;-78
2023/03/13 00:33:17;;;;;;;0.95;0.50;;;9.60;99.90;;;;;;5078360;28;20249;-79
2023/03/13 00:35:44;;;;;;;0.50;0.40;;;9.60;99.90;;;;;;5077817;28;20214;-79
2023/03/13 00:38:11;;;;;;;0.70;0.50;;;9.50;99.90;;;;;;5062078;28;20306;-79
2023/03/13 00:40:39;;;;;;;0.50;0.40;;;9.50;99.90;;;;;;5079034;28;20273;-79
2023/03/13 00:43:06;;;;;;;0.50;0.50;;;9.50;99.90;;;;;;5070119;28;20190;-79
2023/03/13 00:45:33;;;;;;;0.93;0.60;;;9.50;99.90;;;;;;5078657;28;20220;-80
2023/03/13 00:48:00;;;;;;;0.50;0.47;;;9.50;99.90;;;;;;5078514;28;20194;-79
2023/03/13 00:50:26;;;;;;;3.13;2.05;;;9.50;99.90;;;;;;5069791;28;20226;-79
2023/03/13 00:52:54;;;;;;;2.25;1.30;;;9.40;99.90;;;;;;5077400;28;20727;-79
2023/03/13 00:55:20;;;;;;;1.80;1.30;;;9.40;99.90;;;;;;5061648;28;20210;-76
2023/03/13 00:57:49;;;;;;;1.80;0.90;;;9.40;99.90;;;;;;5076323;28;20241;-79
2023/03/13 01:00:16;;;;;;;0.50;0.40;;;9.40;99.90;;;;;;5069826;28;20194;-80
2023/03/13 01:02:43;;;;;;;7.70;3.67;;;9.30;99.90;;;;;;5072219;28;20190;-79
2023/03/13 01:05:12;;;;;;;0.50;0.40;;;9.30;99.90;;;;;;5078500;28;20225;-79
2023/03/13 01:07:38;;;;;;;0.50;0.40;;;9.20;99.90;;;;;;5077630;28;20607;-79
2023/03/13 01:10:07;;;;;;;0.60;0.60;;;9.20;99.90;;;;;;5077516;28;20185;-77
2023/03/13 01:12:33;;;;;;;0.68;0.63;;;9.20;99.90;;;;;;5078100;28;20285;-79
2023/03/13 01:15:02;;;;;;;0.50;0.30;;;9.10;99.90;;;;;;5077218;28;20237;-79
2023/03/13 01:17:29;;;;;;;0.73;0.60;;;9.10;99.90;;;;;;5065957;28;20217;-80
2023/03/13 01:19:56;;;;;;;0.50;0.40;;;9.10;99.90;;;;;;5064420;28;20257;-79
2023/03/13 01:22:23;;;;;;;2.25;1.13;;;9.10;99.90;;;;;;5077346;28;20695;-79
2023/03/13 01:24:51;;;;;;;0.90;0.90;;;9.10;99.90;;;;;;5077075;28;20297;-80
2023/03/13 01:27:18;;;;;;;0.50;0.40;;;9.10;99.90;;;;;;5077227;28;20197;-79
2023/03/13 01:29:45;;;;;;;6.55;1.35;;;9.10;99.90;;;;;;5069181;28;20212;-80
2023/03/13 01:32:13;;;;;;;6.47;1.40;;;9.00;99.90;;;;;;5069363;28;20200;-79
2023/03/13 01:34:40;;;;;;;1.83;0.95;;;9.00;99.90;;;;;;5077504;28;20668;-80
2023/03/13 01:37:07;;;;;;;0.50;0.40;;;9.00;99.90;;;;;;5077331;28;20659;-78
2023/03/13 01:39:34;;;;;;;0.70;0.70;;;9.00;99.90;;;;;;5069421;28;20297;-79
2023/03/13 01:42:01;;;;;;;1.58;1.48;;;9.00;99.90;;;;;;5062235;28;20281;-79
2023/03/13 01:44:27;;;;;;;0.50;0.38;;;9.00;99.90;;;;;;5061063;28;20258;-79
2023/03/13 01:46:54;;;;;;;0.50;0.50;;;9.00;99.90;;;;;;5078266;28;20284;-80
2023/03/13 01:49:25;;;;;;;13.35;3.53;;;9.00;99.90;;;;;;5077711;28;20182;-80
2023/03/13 01:51:55;;;;;;;2.40;1.75;;;9.00;99.90;;;;;;5069922;28;20197;-79
2023/03/13 01:54:24;;;;;;;0.98;0.50;;;9.00;99.90;;;;;;5069218;28;20186;-79
2023/03/13 01:56:56;;;;;;;0.50;0.40;;;9.00;99.90;;;;;;5071574;28;20597;-80
2023/03/13 01:59:26;;;;;;;0.50;0.40;;;9.00;99.90;;;;;;5076970;28;20817;-80
2023/03/13 02:01:57;;;;;;;1.73;0.55;;;9.00;99.90;;;;;;5069341;28;20197;-79
2023/03/13 02:04:30;;;;;;;7.65;1.95;;;9.00;99.90;;;;;;5076747;28;20277;-79
2023/03/13 02:07:01;;;;;;;2.58;2.25;;;9.00;99.90;;;;;;5070453;28;20238;-79
2023/03/13 02:09:30;;;;;;;1.02;0.63;;;9.00;99.90;;;;;;5076516;28;20217;-76
2023/03/13 02:12:02;;;;;;;0.50;0.47;;;9.00;99.90;;;;;;5069990;28;20225;-78
2023/03/13 02:14:34;;;;;;;0.95;0.95;;;9.00;99.90;;;;;;5068946;28;20186;-79
2023/03/13 02:17:01;;;;;;;8.77;1.52;;;9.00;99.90;;;;;;5077400;28;20698;-79
2023/03/13 02:19:37;;;;;;;1.45;1.15;;;9.00;99.90;;;;;;5076599;28;20237;-78
2023/03/13 02:22:15;;;;;;;6.57;4.53;;;9.00;99.90;;;;;;5076353;28;20189;-79
2023/03/13 02:24:49;;;;;;;0.85;0.85;;;9.00;99.90;;;;;;5076620;28;20205;-78
2023/03/13 02:27:18;;;;;;;6.38;1.90;;;9.00;99.90;;;;;;5066305;28;20285;-79
2023/03/13 02:29:45;;;;;;;0.63;0.63;;;9.00;99.90;;;;;;5069157;28;20277;-79
2023/03/13 02:32:12;;;;;;;3.65;1.88;;;9.00;99.90;;;;;;5075287;28;20667;-79
2023/03/13 02:34:41;;;;;;;4.85;1.40;;;9.00;99.90;;;;;;5063924;28;20194;-79
2023/03/13 02:37:11;;;;;;;0.50;0.40;;;9.10;99.90;;;;;;5063451;28;20191;-79
2023/03/13 02:39:41;;;;;;;1.77;1.67;;;9.10;99.90;;;;;;5058918;28;20209;-79
2023/03/13 02:42:08;;;;;;;1.95;1.08;;;9.10;99.90;;;;;;5067492;28;20278;-79
2023/03/13 02:44:40;;;;;;;0.50;0.50;;;9.10;99.90;;;;;;5066760;28;20185;-80
2023/03/13 02:47:08;;;;;;;14.75;1.60;;;9.10;99.90;;;;;;5067571;28;20209;-79
2023/03/13 02:49:36;;;;;;;1.05;0.73;;;9.10;99.90;;;;;;5066741;28;20186;-79
2023/03/13 02:52:10;;;;;;;10.32;5.53;;;9.10;99.90;;;;;;5075118;28;20194;-79
2023/03/13 02:54:39;;;;;;;4.88;1.02;;;9.20;99.90;;;;;;5055048;28;20201;-80
2023/03/13 02:57:06;;;;;;;0.88;0.68;;;9.20;99.90;;;;;;5071813;28;20281;-79
2023/03/13 02:59:34;;;;;;;5.38;1.58;;;9.20;99.90;;;;;;5063366;28;20211;-79
2023/03/13 03:02:03;;;;;;;19.80;1.65;;;9.30;99.90;;;;;;5063781;28;20553;-78
2023/03/13 03:04:30;;;;;;;11.63;1.50;;;9.30;99.90;;;;;;5063555;28;20221;-78
2023/03/13 03:06:57;;;;;;;0.40;0.40;;;9.30;99.90;;;;;;5069828;28;20201;-79
2023/03/13 03:09:25;;;;;;;4.18;1.20;;;9.30;99.90;;;;;;5066518;28;20187;-80
2023/03/13 03:11:52;;;;;;;0.52;0.52;;;9.40;99.90;;;;;;5060715;28;20294;-80
2023/03/13 03:14:18;;;;;;;1.02;0.90;;;9.40;99.90;;;;;;5073156;28;20712;-79
2023/03/13 03:16:46;;;;;;;2.57;1.03;;;9.50;99.90;;;;;;5065664;28;20195;-79
2023/03/13 03:19:14;;;;;;;0.40;0.40;;;9.50;99.90;;;;;;5074748;28;20494;-78
2023/03/13 03:21:41;;;;;;;1.75;1.17;;;9.50;99.90;;;;;;5074619;28;20202;-80
2023/03/13 03:24:08;;;;;;;31.45;4.53;;;9.60;99.90;;;;;;5059280;28;20274;-80
2023/03/13 03:26:35;;;;;;;0.60;0.47;;;9.60;99.90;;;;;;5066448;28;20651;-81
2023/03/13 03:29:02;;;;;;;4.20;3.08;;;9.60;99.90;;;;;;5071780;28;20185;-80
2023/03/13 03:31:30;;;;;;;2.25;1.13;;;9.60;99.90;;;;;;5062347;28;20201;-79
2023/03/13 03:33:57;;;;;;;1.58;0.80;;;9.70;99.90;;;;;;5082055;28;20233;-80
2023/03/13 03:36:26;;;;;;;12.98;1.55;;;9.70;99.90;;;;;;5067830;28;20218;-75
2023/03/13 03:38:53;;;;;;;2.00;0.82;;;9.70;99.90;;;;;;5066075;28;20211;-80
2023/03/13 03:41:20;;;;;;;0.45;0.43;;;9.70;99.90;;;;;;5065204;28;20194;-79
2023/03/13 03:43:47;;;;;;;1.70;1.05;;;9.70;99.90;;;;;;5069643;28;20216;-80
2023/03/13 03:46:14;;;;;;;9.27;0.98;;;9.80;99.90;;;;;;5068058;28;20210;-79
2023/03/13 03:48:41;;;;;;;0.70;0.60;;;9.80;99.90;;;;;;5076746;28;20186;-79
2023/03/13 03:51:08;;;;;;;0.82;0.75;;;9.80;99.90;;;;;;5077164;28;20205;-80
2023/03/13 03:53:36;;;;;;;2.35;1.25;;;9.90;99.90;;;;;;5066023;28;20187;-77
2023/03/13 03:56:04;;;;;;;0.98;0.88;;;9.90;99.90;;;;;;5071714;28;20581;-79
2023/03/13 03:58:31;;;;;;;1.08;0.90;;;10.00;99.90;;;;;;5077232;28;20652;-79
2023/03/13 04:00:58;;;;;;;5.00;1.50;;;10.00;99.90;;;;;;5078520;28;20302;-78
2023/03/13 04:03:25;;;;;;;1.20;0.73;;;10.00;99.90;;;;;;5076475;28;20288;-80
2023/03/13 04:05:52;;;;;;;0.80;0.63;;;10.00;99.90;;;;;;5070873;28;20209;-79
2023/03/13 04:08:19;;;;;;;8.63;3.55;;;10.00;99.90;;;;;;5068389;28;20194;-79
2023/03/13 04:10:48;;;;;;;1.65;1.30;;;10.00;99.90;;;;;;5066166;28;20581;-79
2023/03/13 04:13:15;;;;;;;0.95;0.80;;;10.10;99.90;;;;;;5065651;28;20225;-79
2023/03/13 04:15:42;;;;;;;1.08;0.95;;;10.10;99.90;;;;;;5069088;28;20666;-79
2023/03/13 04:18:09;;;;;;;0.40;0.40;;;10.00;99.90;;;;;;5077748;28;20186;-79
2023/03/13 04:20:36;;;;;;;3.05;1.55;;;10.10;99.90;;;;;;5074698;28;20688;-78
2023/03/13 04:23:04;;;;;;;1.35;0.90;;;10.10;99.90;;;;;;5058938;28;20286;-80
2023/03/13 04:25:30;;;;;;;2.83;1.63;;;10.10;99.90;;;;;;5068405;28;20224;-79
2023/03/13 04:27:59;;;;;;;5.60;3.05;;;10.10;99.90;;;;;;5073160;28;20191;-78
2023/03/13 04:30:25;;;;;;;6.68;0.98;;;10.10;99.90;;;;;;5068354;28;20376;-80
2023/03/13 04:32:52;;;;;;;0.40;0.30;;;10.10;99.90;;;;;;5078597;28;20190;-80
2023/03/13 04:35:19;;;;;;;0.75;0.75;;;10.20;99.90;;;;;;5068174;28;20720;-79
2023/03/13 04:37:46;;;;;;;0.77;0.70;;;10.20;99.90;;;;;;5068741;28;20193;-79
2023/03/13 04:40:13;;;;;;;7.72;1.23;;;10.20;99.90;;;;;;5068815;28;20214;-80
2023/03/13 04:42:40;;;;;;;1.10;1.08;;;10.30;99.90;;;;;;5076797;28;20196;-79
2023/03/13 04:45:12;;;;;;;2.58;1.30;;;10.30;99.90;;;;;;5076344;28;20214;-79
2023/03/13 04:47:39;;;;;;;1.45;0.70;;;10.40;99.90;;;;;;5068401;28;20196;-79
2023/03/13 04:50:07;;;;;;;0.85;0.80;;;10.40;99.90;;;;;;5076595;28;20196;-78
2023/03/13 04:52:34;;;;;;;0.80;0.73;;;10.40;99.90;;;;;;5077107;28;20294;-76
2023/03/13 04:55:00;;;;;;;1.02;0.68;;;10.50;99.90;;;;;;5077443;28;20608;-80
2023/03/13 04:57:27;;;;;;;1.80;1.70;;;10.60;99.90;;;;;;5068899;28;20253;-77
2023/03/13 04:59:54;;;;;;;1.73;1.30;;;10.60;99.90;;;;;;5077651;28;20210;-80
2023/03/13 05:02:22;;;;;;;0.60;0.60;;;10.70;99.90;;;;;;5068661;28;20233;-80
2023/03/13 05:04:49;;;;;;;0.50;0.50;;;10.80;99.90;;;;;;5077030;28;20680;-80
2023/03/13 05:07:16;;;;;;;0.85;0.85;;;10.80;99.90;;;;;;5076635;28;20194;-78
2023/03/13 05:09:43;;;;;;;4.75;1.75;;;10.90;99.90;;;;;;5075625;28;20186;-81
2023/03/13 05:12:11;;;;;;;1.02;0.73;;;10.90;99.90;;;;;;5071772;28;20286;-80
2023/03/13 05:14:38;;;;;;;1.70;1.45;;;11.00;99.90;;;;;;5080169;28;20222;-79
2023/03/13 05:17:04;;;;;;;1.88;1.10;;;11.00;99.90;;;;;;5072225;28;20281;-80
2023/03/13 05:19:33;;;;;;;0.80;0.80;;;11.10;99.90;;;;;;5060687;28;20228;-80
2023/03/13 05:21:59;;;;;;;0.60;0.60;;;11.10;99.90;;;;;;5073393;28;20489;-79
2023/03/13 05:24:26;;;;;;;3.45;1.77;;;11.20;99.90;;;;;;5071590;28;20452;-78
2023/03/13 05:26:53;;;;;;;0.77;0.77;;;11.20;99.90;;;;;;5079441;28;20282;-79
2023/03/13 05:29:20;;;;;;;2.45;1.00;;;11.30;99.90;;;;;;5079254;28;20482;-79
2023/03/13 05:31:47;;;;;;;1.27;1.17;;;11.30;99.90;;;;;;5066893;28;20221;-79
2023/03/13 05:34:14;;;;;;;0.90;0.90;;;11.30;99.90;;;;;;5067180;28;20190;-79
2023/03/13 05:36:42;;;;;;;1.33;1.23;;;11.40;99.90;;;;;;5066676;28;20314;-79
2023/03/13 05:39:09;;;;;;;3.37;1.47;;;11.40;99.90;;;;;;5073261;28;20237;-80
2023/03/13 05:41:36;;;;;;;1.00;0.70;;;11.40;99.90;;;;;;5071098;28;20785;-79
2023/03/13 05:44:02;;;;;;;1.20;0.90;;;11.50;99.90;;;;;;5071180;28;20740;-81
2023/03/13 05:46:29;;;;;;;0.80;0.80;;;11.50;99.90;;;;;;5069822;28;20539;-79
2023/03/13 05:48:56;;;;;;;1.33;1.23;;;11.50;99.90;;;;;;5076067;28;20953;-79
2023/03/13 05:51:23;;;;;;;2.60;1.67;;;11.50;99.90;;;;;;5068264;28;20440;-80
2023/03/13 05:53:51;;;;;;;1.40;0.53;;;11.60;99.90;;;;;;5075492;28;20436;-79
2023/03/13 05:56:18;;;;;;;2.78;1.50;;;11.60;99.90;;;;;;5069029;28;20544;-80
2023/03/13 05:58:45;;;;;;;1.63;1.20;;;11.60;99.90;;;;;;5060012;28;20258;-82
2023/03/13 06:01:13;;;;;;;1.35;1.15;;;11.70;99.90;;;;;;5070662;28;20186;-79
2023/03/13 06:03:40;;;;;;;1.02;0.93;;;11.70;99.90;;;;;;5076389;28;20265;-81
2023/03/13 06:06:07;;;;;;;1.37;1.00;;;11.70;99.90;;;;;;5076757;28;20220;-79
2023/03/13 06:08:34;;;;;;;3.93;1.53;;;11.70;99.90;;;;;;5060549;28;20546;-80
2023/03/13 06:11:03;;;;;;;3.60;1.97;;;11.70;99.90;;;;;;5070107;28;20440;-79
2023/03/13 06:13:30;;;;;;;2.50;2.30;;;11.80;99.90;;;;;;5076560;28;20447;-79
2023/03/13 06:15:58;;;;;;;0.80;0.80;;;11.80;99.90;;;;;;5078649;28;20212;-80
2023/03/13 06:18:26;;;;;;;1.77;1.63;;;11.90;99.90;;;;;;5068922;28;20573;-78
2023/03/13 06:20:57;;;;;;;0.95;0.85;;;11.90;99.90;;;;;;5061434;28;20305;-81
2023/03/13 06:23:24;;;;;;;1.03;0.93;;;11.90;99.90;;;;;;5069640;28;20258;-80
2023/03/13 06:25:51;;;;;;;0.95;0.95;;;12.00;99.90;;;;;;5070058;28;20460;-81
2023/03/13 06:28:19;;;;;;;0.60;0.57;;;12.00;99.90;;;;;;5077226;28;20290;-79
2023/03/13 06:30:46;;;;;;;1.58;1.48;;;12.10;99.90;;;;;;5077282;28;20188;-79
2023/03/13 06:33:13;;;;;;;0.80;0.63;;;12.10;99.90;;;;;;5076196;28;20213;-81
2023/03/13 06:35:41;;;;;;;2.15;1.30;;;12.10;99.90;;;;;;5076896;28;20280;-79
2023/03/13 06:38:08;;;;;;;0.85;0.60;;;12.20;99.90;;;;;;5076660;28;20206;-80
2023/03/13 06:40:34;;;;;;;2.30;1.15;;;12.30;99.90;;;;;;5076720;28;20210;-79
2023/03/13 06:43:01;;;;;;;1.15;0.98;;;12.30;99.90;;;;;;5075355;28;20268;-81
2023/03/13 06:45:30;;;;;;;1.10;1.00;;;12.30;99.90;;;;;;5077209;28;20209;-80
2023/03/13 06:47:56;;;;;;;1.05;0.70;;;12.30;99.90;;;;;;5077522;28;20527;-80
2023/03/13 06:50:24;;;;;;;1.25;1.25;;;12.30;99.90;;;;;;5072944;28;20195;-79
2023/03/13 06:52:51;;;;;;;1.35;1.25;;;12.30;99.90;;;;;;5069822;28;20654;-81
2023/03/13 06:55:18;;;;;;;1.95;1.00;;;12.40;99.90;;;;;;5071188;28;20217;-81
2023/03/13 06:57:50;;;;;;;1.77;0.80;;;12.40;99.90;;;;;;5078698;28;20623;-79
2023/03/13 07:00:17;;;;;;;1.02;1.02;;;12.40;99.90;;;;;;5083544;28;20237;-82
2023/03/13 07:02:46;;;;;;;0.53;0.40;;;12.50;99.90;;;;;;5083933;28;20237;-80
2023/03/13 07:05:13;;;;;;;0.83;0.83;;;12.50;99.90;;;;;;5080049;28;20475;-81
2023/03/13 07:07:41;;;;;;;7.57;2.15;;;12.50;99.90;;;;;;5088849;28;20436;-82
2023/03/13 07:10:10;;;;;;;1.38;1.10;;;12.50;99.90;;;;;;5068668;28;20212;-80
2023/03/13 07:12:37;;;;;;;1.25;1.15;;;12.60;99.90;;;;;;5073584;28;20213;-78
2023/03/13 07:15:05;;;;;;;0.60;0.52;;;12.60;99.90;;;;;;5078911;28;20277;-79
2023/03/13 07:17:32;;;;;;;2.05;0.75;;;12.60;99.90;;;;;;5080540;28;20281;-80
2023/03/13 07:20:00;;;;;;;0.80;0.60;;;12.70;99.90;;;;;;5081921;28;20223;-79
2023/03/13 07:22:27;;;;;;;0.70;0.70;;;12.70;99.90;;;;;;5075295;28;20471;-82
2023/03/13 07:24:54;;;;;;;0.70;0.70;;;12.70;99.90;;;;;;5085277;28;20213;-83
2023/03/13 07:27:21;;;;;;;0.93;0.93;;;12.80;99.90;;;;;;5080972;28;21009;-80
2023/03/13 07:29:48;;;;;;;3.30;0.93;;;12.80;99.90;;;;;;5072300;28;20432;-79
2023/03/13 07:32:15;;;;;;;1.53;0.70;;;12.80;99.90;;;;;;5080441;28;20440;-79
2023/03/13 07:34:44;;;;;;;1.23;1.03;;;12.90;99.90;;;;;;5073462;28;20440;-80
2023/03/13 07:37:13;;;;;;;3.07;0.80;;;12.90;99.90;;;;;;5077615;28;20440;-81
2023/03/13 07:39:40;;;;;;;3.03;1.33;;;13.00;99.90;;;;;;5075877;28;20468;-79
2023/03/13 07:42:07;;;;;;;1.60;0.67;;;13.00;99.90;;;;;;5072729;28;20497;-81
2023/03/13 07:44:34;;;;;;;1.33;0.50;;;13.00;99.90;;;;;;5073049;28;20457;-79
2023/03/13 07:47:01;;;;;;;2.37;1.17;;;13.00;99.90;;;;;;5066007;28;20439;-81
2023/03/13 07:49:28;;;;;;;0.60;0.55;;;13.00;99.90;;;;;;5070758;28;20816;-79
2023/03/13 07:51:55;;;;;;;1.73;1.20;;;13.10;99.90;;;;;;5081858;28;20186;-79
2023/03/13 07:54:23;;;;;;;1.00;0.70;;;13.10;99.90;;;;;;5077789;28;20504;-79
2023/03/13 07:56:50;;;;;;;4.93;0.87;;;13.10;99.90;;;;;;5078532;28;20438;-79
2023/03/13 07:59:17;;;;;;;0.97;0.90;;;13.10;99.90;;;;;;5078128;28;20435;-81
2023/03/13 08:01:44;;;;;;;2.93;0.80;;;13.10;99.90;;;;;;5076581;28;20464;-79
2023/03/13 08:04:14;;;;;;;1.53;1.10;;;13.10;99.90;;;;;;5073723;28;20432;-78
2023/03/13 08:06:42;;;;;;;1.10;0.70;;;13.10;99.90;;;;;;5077106;28;20464;-80
2023/03/13 08:09:09;;;;;;;1.40;1.30;;;13.10;99.90;;;;;;5069341;28;20445;-79
2023/03/13 08:11:40;;;;;;;6.03;1.17;;;13.10;99.90;;;;;;5075999;28;20563;-79
2023/03/13 08:14:07;;;;;;;3.83;1.88;;;13.20;99.90;;;;;;5074315;28;20432;-80
2023/03/13 08:16:35;;;;;;;2.60;1.60;;;13.20;99.90;;;;;;5079247;28;20224;-77
2023/03/13 08:19:04;;;;;;;0.70;0.67;;;13.20;99.90;;;;;;5078136;28;20440;-79
2023/03/13 08:21:35;;;;;;;2.90;1.80;;;13.20;99.90;;;;;;5078031;28;21002;-79
2023/03/13 08:24:05;;;;;;;0.90;0.90;;;13.20;99.90;;;;;;5080616;28;20434;-78
2023/03/13 08:26:34;;;;;;;0.70;0.63;;;13.20;99.90;;;;;;5070028;28;20468;-78
2023/03/13 08:29:05;;;;;;;1.03;0.67;;;13.30;99.90;;;;;;5067141;28;20504;-81
2023/03/13 08:31:34;;;;;;;1.13;0.70;;;13.30;99.90;;;;;;5067052;28;20440;-80
2023/03/13 08:34:00;;;;;;;5.20;1.33;;;13.30;99.90;;;;;;5078896;28;20549;-80
2023/03/13 08:36:29;;;;;;;0.70;0.70;;;13.40;99.90;;;;;;5077858;28;20459;-79
2023/03/13 08:38:59;;;;;;;1.43;1.33;;;13.40;99.90;;;;;;5079537;28;20446;-79
2023/03/13 08:41:28;;;;;;;0.67;0.67;;;13.40;99.90;;;;;;5078512;28;20472;-79
2023/03/13 08:43:56;;;;;;;7.53;1.60;;;13.40;99.90;;;;;;5078065;28;21193;-79
2023/03/13 08:46:25;;;;;;;5.00;1.93;;;13.40;99.90;;;;;;5078788;28;20816;-79
2023/03/13 08:48:52;;;;;;;0.90;0.90;;;13.50;99.90;;;;;;5078872;28;20450;-81
2023/03/13 08:51:21;;;;;;;1.77;1.40;;;13.50;99.90;;;;;;5072281;28;20432;-79
2023/03/13 08:53:50;;;;;;;4.23;1.43;;;13.60;99.90;;;;;;5062930;28;20437;-80
2023/03/13 08:56:20;;;;;;;0.70;0.60;;;13.50;99.90;;;;;;5080574;28;20463;-79
2023/03/13 08:58:49;;;;;;;1.07;0.70;;;13.50;99.90;;;;;;5078812;28;20464;-80
2023/03/13 09:01:17;;;;;;;3.13;1.27;;;13.50;99.90;;;;;;5064040;28;20563;-78
2023/03/13 09:03:45;;;;;;;0.80;0.80;;;13.60;99.90;;;;;;5078486;28;20896;-80
2023/03/13 09:06:12;;;;;;;2.17;1.17;;;13.80;99.90;;;;;;5072540;28;20496;-78
2023/03/13 09:08:42;;;;;;;0.80;0.60;;;13.80;99.90;;;;;;5073742;28;20440;-79
2023/03/13 09:11:11;;;;;;;1.27;0.70;;;13.90;99.90;;;;;;5070598;28;20510;-80
2023/03/13 09:13:40;;;;;;;2.03;1.50;;;13.90;99.90;;;;;;5077334;28;20444;-77
2023/03/13 09:16:09;;;;;;;8.40;1.33;;;14.00;99.90;;;;;;5073788;28;20541;-80
2023/03/13 09:18:36;;;;;;;1.10;0.50;;;14.10;99.90;;;;;;5073326;28;20827;-79
2023/03/13 09:21:07;;;;;;;2.03;1.37;;;14.10;99.90;;;;;;5076541;28;20472;-77
2023/03/13 09:23:34;;;;;;;1.43;1.13;;;14.10;99.90;;;;;;5078046;28;20472;-79
2023/03/13 09:26:02;;;;;;;2.47;1.40;;;14.10;99.90;;;;;;5077293;28;20516;-78
2023/03/13 09:28:28;;;;;;;1.27;0.73;;;14.20;99.90;;;;;;5071054;28;20448;-80
2023/03/13 09:30:55;;;;;;;3.23;1.00;;;14.20;99.90;;;;;;5076792;28;20498;-77
2023/03/13 09:33:23;;;;;;;1.63;1.10;;;14.30;99.90;;;;;;5070725;28;20468;-77
2023/03/13 09:35:50;;;;;;;2.23;1.33;;;14.30;99.90;;;;;;5073701;28;20456;-79
2023/03/13 09:38:20;;;;;;;3.00;0.80;;;14.30;99.90;;;;;;5074558;28;20450;-78
2023/03/13 09:40:49;;;;;;;0.70;0.70;;;14.20;99.90;;;;;;5077029;28;20583;-81
2023/03/13 09:43:25;;;;;;;1.73;1.00;;;14.00;99.90;;;;;;5074842;28;20466;-78
2023/03/13 09:45:57;;;;;;;0.90;0.90;;;14.00;99.90;;;;;;5066695;28;20456;-77
2023/03/13 09:48:32;;;;;;;1.70;1.17;;;14.10;99.90;;;;;;5075505;28;20950;-81
2023/03/13 09:51:05;;;;;;;8.70;1.47;;;14.00;99.90;;;;;;5068010;28;20461;-82
2023/03/13 09:53:42;;;;;;;15.93;1.60;;;13.90;99.90;;;;;;5072731;28;20894;-80
2023/03/13 09:56:16;;;;;;;2.80;0.70;;;13.80;99.90;;;;;;5069872;28;20472;-80
2023/03/13 09:58:50;;;;;;;1.67;1.00;;;14.00;99.90;;;;;;5076735;28;20511;-83
2023/03/13 10:01:22;;;;;;;0.83;0.83;;;14.20;99.90;;;;;;5076138;28;20517;-80
2023/03/13 10:04:12;;;;;;;21.93;2.00;;;14.10;99.90;;;;;;5079509;28;20535;-80
2023/03/13 10:06:43;;;;;;;1.80;1.70;;;14.00;99.90;;;;;;5081177;28;21024;-80
2023/03/13 10:09:20;;;;;;;1.80;1.13;;;14.00;99.90;;;;;;5071573;28;20520;-79
2023/03/13 10:11:57;;;;;;;1.27;1.07;;;14.00;99.90;;;;;;5072184;28;20459;-81
2023/03/13 10:14:30;;;;;;;0.50;0.40;;;14.20;99.90;;;;;;5071489;28;20440;-79
2023/03/13 10:17:05;;;;;;;5.03;0.90;;;14.50;99.90;;;;;;5066959;28;20448;-79
2023/03/13 10:19:36;;;;;;;0.93;0.73;;;14.80;99.90;;;;;;5076546;28;20459;-79
2023/03/13 10:22:18;;;;;;;3.53;1.50;;;15.00;99.90;;;;;;5081327;28;20483;-82
2023/03/13 10:24:50;;;;;;;5.43;3.03;;;15.20;99.90;;;;;;5073614;28;20448;-81
2023/03/13 10:27:17;;;;;;;1.17;1.07;;;15.60;99.90;;;;;;5073691;28;20429;-80
2023/03/13 10:29:45;;;;;;;1.17;0.70;;;15.60;99.90;;;;;;5068471;28;20877;-79
2023/03/13 10:32:14;;;;;;;3.70;1.87;;;15.30;99.90;;;;;;5073117;28;20431;-81
2023/03/13 10:34:55;;;;;;;8.37;1.80;;;15.00;99.90;;;;;;5081486;28;20459;-81
2023/03/13 10:37:25;;;;;;;2.83;1.33;;;14.80;99.90;;;;;;5075840;28;20437;-81
2023/03/13 10:39:54;;;;;;;1.60;1.10;;;14.70;99.90;;;;;;5089660;28;20595;-83
2023/03/13 10:42:26;;;;;;;0.73;0.73;;;14.70;99.90;;;;;;5073817;28;20476;-83
2023/03/13 10:44:58;;;;;;;1.23;1.00;;;14.70;99.90;;;;;;5074062;28;20577;-80
2023/03/13 10:47:25;;;;;;;1.50;1.10;;;14.80;99.90;;;;;;5083517;28;20497;-81
2023/03/13 10:49:57;;;;;;;1.27;1.00;;;15.00;99.90;;;;;;5085783;28;20443;-81
2023/03/13 10:52:34;;;;;;;2.20;1.37;;;15.00;99.90;;;;;;5076638;28;20433;-81
2023/03/13 10:55:05;;;;;;;5.03;1.80;;;15.00;99.90;;;;;;5081297;28;20552;-82
2023/03/13 10:57:34;;;;;;;0.73;0.70;;;15.10;99.90;;;;;;5076004;28;20512;-80
2023/03/13 11:00:08;;;;;;;1.03;0.77;;;15.20;99.90;;;;;;5082540;28;20920;-82
2023/03/13 11:02:37;;;;;;;0.67;0.60;;;15.30;99.90;;;;;;5079172;28;20519;-80
2023/03/13 11:05:33;;;;;;;0.73;0.73;;;15.50;99.90;;;;;;5091060;28;20448;-83
2023/03/13 11:08:12;;;;;;;0.73;0.60;;;15.50;99.90;;;;;;5082147;28;20444;-82
2023/03/13 11:10:53;;;;;;;0.60;0.60;;;15.40;99.90;;;;;;5067944;28;20466;-83
2023/03/13 11:13:28;;;;;;;0.70;0.70;;;15.50;99.90;;;;;;5066990;28;20443;-83
2023/03/13 11:15:59;;;;;;;0.67;0.67;;;15.40;99.90;;;;;;5060020;28;20476;-85
2023/03/13 11:18:32;;;;;;;1.20;0.87;;;15.50;99.90;;;;;;5070433;28;20876;-82
2023/03/13 11:21:01;;;;;;;1.00;0.80;;;15.50;99.90;;;;;;5074454;28;20464;-82
2023/03/13 11:23:30;;;;;;;1.10;0.90;;;15.50;99.90;;;;;;5072368;28;20440;-82
2023/03/13 11:26:08;;;;;;;1.83;1.00;;;15.60;99.90;;;;;;5064839;28;20492;-83
2023/03/13 11:28:47;;;;;;;1.17;0.77;;;15.60;99.90;;;;;;5071072;28;20461;-82
2023/03/13 11:31:19;;;;;;;0.70;0.50;;;15.70;99.90;;;;;;5066350;28;20420;-81
2023/03/13 11:33:52;;;;;;;0.60;0.50;;;15.70;99.90;;;;;;5069677;28;20467;-80
2023/03/13 11:36:28;;;;;;;0.97;0.70;;;15.80;99.90;;;;;;5075145;28;20547;-81
2023/03/13 11:39:06;;;;;;;2.20;0.70;;;15.90;99.90;;;;;;5084591;28;20443;-81
2023/03/13 11:41:52;;;;;;;0.83;0.70;;;15.90;99.90;;;;;;5078255;28;20471;-83
2023/03/13 11:44:30;;;;;;;0.73;0.73;;;16.10;99.90;;;;;;5083496;28;20846;-82
2023/03/13 11:47:17;;;;;;;0.60;0.60;;;16.10;99.90;;;;;;5074527;28;20443;-81
2023/03/13 11:50:17;;;;;;;0.80;0.67;;;16.10;99.90;;;;;;5076395;28;20461;-82
2023/03/13 11:52:58;;;;;;;0.73;0.70;;;16.10;99.90;;;;;;5044894;28;20815;-80
2023/03/13 11:55:33;;;;;;;0.60;0.57;;;16.00;99.90;;;;;;5071564;28;20520;-80
2023/03/13 11:58:19;;;;;;;0.77;0.40;;;16.10;99.90;;;;;;5081212;28;20428;-80
2023/03/13 12:00:52;;;;;;;4.33;1.27;;;16.10;99.90;;;;;;5070712;28;20463;-79
2023/03/13 12:03:26;;;;;;;0.97;0.97;;;16.10;99.90;;;;;;5077270;28;20428;-80
2023/03/13 12:05:56;;;;;;;0.50;0.40;;;16.20;99.90;;;;;;5080149;28;20518;-80
2023/03/13 12:08:28;;;;;;;0.60;0.50;;;16.30;99.90;;;;;;5074807;28;20516;-79
2023/03/13 12:11:05;;;;;;;0.70;0.70;;;16.40;99.90;;;;;;5079625;28;20473;-81
2023/03/13 12:13:39;;;;;;;1.07;0.57;;;16.40;99.90;;;;;;5075205;28;20439;-78
2023/03/13 12:16:12;;;;;;;0.70;0.70;;;16.30;99.90;;;;;;5074808;28;20470;-78
2023/03/13 12:18:40;;;;;;;0.60;0.60;;;16.30;99.90;;;;;;5071202;28;21000;-81
2023/03/13 12:21:18;;;;;;;0.60;0.53;;;16.30;99.90;;;;;;5081951;28;20475;-77
2023/03/13 12:23:52;;;;;;;0.70;0.60;;;16.30;99.90;;;;;;5074695;28;20432;-78
2023/03/13 12:26:21;;;;;;;0.70;0.60;;;16.30;99.90;;;;;;5066835;28;20440;-79
2023/03/13 12:29:07;;;;;;;0.63;0.40;;;16.30;99.90;;;;;;5073604;28;20433;-77
2023/03/13 12:31:38;;;;;;;0.70;0.70;;;16.20;99.90;;;;;;5080657;28;20447;-79
2023/03/13 12:34:14;;;;;;;0.60;0.50;;;16.20;99.90;;;;;;5072728;28;20461;-80
2023/03/13 12:36:46;;;;;;;1.00;0.60;;;16.10;99.90;;;;;;5067542;28;20536;-81
2023/03/13 12:39:27;;;;;;;0.50;0.40;;;16.10;99.90;;;;;;5063779;28;20963;-80
2023/03/13 12:42:09;;;;;;;0.70;0.50;;;16.10;99.90;;;;;;5072907;28;20476;-81
2023/03/13 12:44:39;;;;;;;0.80;0.50;;;16.00;99.90;;;;;;5069518;28;20951;-79
2023/03/13 12:47:10;;;;;;;1.10;0.87;;;16.10;99.90;;;;;;5066902;28;20526;-80
2023/03/13 12:50:07;;;;;;;2.70;0.60;;;16.10;99.90;;;;;;5071851;28;20440;-80
2023/03/13 12:52:57;;;;;;;1.20;0.57;;;16.00;99.90;;;;;;5072243;28;20468;-79
2023/03/13 12:55:54;;;;;;;0.70;0.70;;;15.90;99.90;;;;;;5066026;28;20539;-78
2023/03/13 12:58:30;;;;;;;4.30;1.13;;;15.90;99.90;;;;;;5073523;28;20957;-78
2023/03/13 13:01:03;;;;;;;0.60;0.47;;;16.00;99.90;;;;;;5072224;28;20458;-77
2023/03/13 13:03:35;;;;;;;0.83;0.83;;;16.20;99.90;;;;;;5076067;28;20437;-78